Time;durP1;ratioP1;P1;durP2;ratioP2;P2;SDS_P1;SDS_P2;PMS_P1;PMS_P2;Temp;Humidity;BMP_temperature;BMP_pressure;BME280_temperature;BME280_humidity;BME280_pressure;Samples;Min_cycle;Max_cycle;Signal;HPM_P1;HPM_P2
2021/01/23 00:00:25;;;;;;;43.07;17.40;;;;;;;6.33;69.25;99034.72;4971519;57;1134292;-91
2021/01/23 00:05:32;;;;;;;55.15;23.67;;;;;;;6.30;69.31;99048.93;4941013;57;1136770;-90
2021/01/23 00:10:38;;;;;;;67.20;29.10;;;;;;;6.29;69.26;99049.89;4887519;57;1136470;-90
2021/01/23 00:15:44;;;;;;;99.20;39.80;;;;;;;6.31;69.00;99050.59;4892844;58;1138297;-90
2021/01/23 00:20:50;;;;;;;126.60;51.67;;;;;;;6.30;68.86;99051.55;4861885;57;1138601;-90
2021/01/23 00:25:55;;;;;;;169.03;69.43;;;;;;;6.21;68.82;99044.45;4866682;57;1138316;-90
2021/01/23 00:31:01;;;;;;;134.90;54.00;;;;;;;6.17;69.01;99051.39;4875425;57;1138285;-89
2021/01/23 00:36:08;;;;;;;107.50;41.87;;;;;;;6.10;68.81;99037.12;4929509;57;1136737;-89
2021/01/23 00:41:13;;;;;;;89.43;28.50;;;;;;;5.95;68.43;99030.04;4972784;57;1138524;-89
2021/01/23 00:46:19;;;;;;;52.10;15.63;;;;;;;5.75;68.32;99040.81;4969070;57;1136421;-89
2021/01/23 00:51:25;;;;;;;55.73;17.90;;;;;;;5.46;67.87;99039.23;4983238;57;1136482;-89
2021/01/23 00:56:33;;;;;;;53.80;17.63;;;;;;;5.28;68.31;99024.97;4967827;57;1138505;-89
2021/01/23 01:01:38;;;;;;;55.07;16.83;;;;;;;5.32;68.84;99027.70;4981601;57;1138555;-90
2021/01/23 01:06:46;;;;;;;54.27;16.80;;;;;;;5.20;68.47;99039.97;4998390;57;1136621;-90
2021/01/23 01:11:51;;;;;;;79.53;24.97;;;;;;;5.11;68.51;99044.64;4980741;57;1136296;-90
2021/01/23 01:16:57;;;;;;;72.97;28.33;;;;;;;4.92;68.80;99047.02;4981688;57;1136332;-89
2021/01/23 01:22:02;;;;;;;65.90;23.70;;;;;;;4.88;69.04;99024.19;4983042;57;1136366;-90
2021/01/23 01:27:08;;;;;;;157.17;54.87;;;;;;;4.83;69.18;99019.77;4979003;57;1136212;-90
2021/01/23 01:32:13;;;;;;;132.50;40.27;;;;;;;4.76;69.07;99027.73;4978797;57;1138699;-90
2021/01/23 01:37:19;;;;;;;85.10;24.63;;;;;;;4.59;68.74;99022.48;4980472;57;1138738;-90
2021/01/23 01:42:24;;;;;;;31.40;12.30;;;;;;;4.34;68.57;99001.77;4977956;57;1136401;-90
2021/01/23 01:47:30;;;;;;;21.30;8.77;;;;;;;4.34;68.57;99001.77;4981638;57;1138805;-89
2021/01/23 01:52:35;;;;;;;61.27;20.40;;;;;;;4.24;69.04;99005.56;4986707;57;1134468;-89
2021/01/23 01:57:41;;;;;;;36.65;12.75;;;;;;;4.17;69.46;99008.27;4980239;57;1136476;-89
2021/01/23 02:03:13;;;;;;;14.53;7.10;;;;;;;4.18;69.85;99014.34;5002130;57;1136166;-89
2021/01/23 02:08:44;;;;;;;40.37;16.40;;;;;;;4.17;70.26;99013.98;4986236;57;1134496;-89
2021/01/23 02:13:54;;;;;;;19.30;6.90;;;;;;;4.18;70.43;99013.87;4998614;57;1136171;-90
2021/01/23 02:19:12;;;;;;;13.33;5.90;;;;;;;4.11;69.73;98998.77;4850179;58;1134682;-90
2021/01/23 02:24:24;;;;;;;18.93;8.07;;;;;;;4.07;70.21;98993.39;4909918;59;1136634;-90
2021/01/23 02:30:00;;;;;;;36.70;15.73;;;;;;;4.05;70.46;98986.97;4778331;61;1140731;-89
2021/01/23 02:35:09;;;;;;;70.13;24.50;;;;;;;4.07;71.09;98999.94;4734866;61;1136727;-90
2021/01/23 02:40:15;;;;;;;89.13;34.80;;;;;;;4.12;71.25;98995.20;4745792;61;1137106;-89
2021/01/23 02:45:21;;;;;;;22.73;10.27;;;;;;;4.13;71.30;98995.53;4706687;61;1136479;-89
2021/01/23 02:50:28;;;;;;;14.72;7.32;;;;;;;4.04;70.96;98974.00;4709054;60;1251696;-90
2021/01/23 02:55:36;;;;;;;18.70;6.97;;;;;;;4.04;71.48;98974.83;4751261;59;1136475;-90
2021/01/23 03:00:43;;;;;;;18.33;7.37;;;;;;;4.17;71.76;98974.26;4939043;58;1136771;-89
2021/01/23 03:05:50;;;;;;;14.38;6.40;;;;;;;4.24;71.90;98973.33;4972490;57;1134562;-89
2021/01/23 03:10:56;;;;;;;14.50;5.28;;;;;;;4.24;71.90;98959.77;4941530;57;1134484;-90
2021/01/23 03:16:01;;;;;;;8.30;5.00;;;;;;;4.19;71.97;98960.59;4925146;57;1134361;-89
2021/01/23 03:21:07;;;;;;;12.37;5.23;;;;;;;4.19;71.95;98963.20;4935175;57;1132067;-90
2021/01/23 03:26:12;;;;;;;16.17;6.43;;;;;;;4.22;72.01;98956.44;4949838;57;1136415;-89
2021/01/23 03:31:18;;;;;;;16.77;6.57;;;;;;;4.20;72.22;98965.34;4940903;58;1134389;-89
2021/01/23 03:36:24;;;;;;;11.77;5.67;;;;;;;4.19;72.28;98948.81;4800561;60;1134417;-90
2021/01/23 03:41:30;;;;;;;9.43;4.77;;;;;;;4.16;72.19;98928.11;4819252;58;1153045;-90
2021/01/23 03:46:36;;;;;;;13.37;5.03;;;;;;;4.08;72.12;98923.95;4833331;60;1132220;-90
2021/01/23 03:51:42;;;;;;;9.83;4.75;;;;;;;4.05;72.43;98912.89;4823735;60;1134478;-90
2021/01/23 03:56:47;;;;;;;14.93;4.90;;;;;;;4.00;72.62;98917.15;4844514;58;1132102;-90
2021/01/23 04:01:53;;;;;;;20.30;9.13;;;;;;;4.01;72.84;98930.59;4793864;60;1134604;-90
2021/01/23 04:06:59;;;;;;;36.43;12.20;;;;;;;4.06;73.09;98950.70;4796244;60;1134404;-90
2021/01/23 04:12:06;;;;;;;24.00;10.70;;;;;;;4.11;73.23;98945.12;4761784;59;1136629;-90
2021/01/23 04:17:12;;;;;;;18.13;8.77;;;;;;;4.13;73.21;98936.19;4813770;60;1136224;-89
2021/01/23 04:22:18;;;;;;;25.60;10.47;;;;;;;4.16;72.98;98937.74;4816761;59;1136435;-90
2021/01/23 04:27:23;;;;;;;22.10;9.68;;;;;;;4.19;72.94;98934.90;4727247;59;1136299;-90
2021/01/23 04:32:29;;;;;;;18.45;7.90;;;;;;;4.19;73.10;98924.44;4841976;60;1134827;-91
2021/01/23 04:37:35;;;;;;;20.32;8.93;;;;;;;4.10;72.99;98908.14;4738104;61;1134314;-90
2021/01/23 04:42:45;;;;;;;18.10;8.00;;;;;;;4.07;73.32;98910.52;4834070;59;1134608;-89
2021/01/23 04:47:55;;;;;;;17.63;8.47;;;;;;;4.07;73.57;98917.05;4922459;58;1134133;-90
2021/01/23 04:53:01;;;;;;;17.82;8.35;;;;;;;4.10;73.38;98918.61;4912079;58;1136356;-90
2021/01/23 04:58:06;;;;;;;21.13;8.87;;;;;;;4.13;73.58;98917.04;4896762;59;1134689;-90
2021/01/23 05:03:12;;;;;;;11.50;6.43;;;;;;;4.16;73.73;98920.73;4933633;58;1134734;-90
2021/01/23 05:08:17;;;;;;;10.47;6.13;;;;;;;4.07;73.68;98910.98;4916186;59;1134320;-90
2021/01/23 05:13:23;;;;;;;8.80;4.58;;;;;;;3.91;73.46;98889.09;4896793;59;1134589;-90
2021/01/23 05:18:28;;;;;;;17.57;7.10;;;;;;;3.86;74.05;98891.22;4861246;59;1132555;-89
2021/01/23 05:23:34;;;;;;;10.40;5.20;;;;;;;3.67;74.09;98848.63;4896449;59;1134600;-90
2021/01/23 05:28:41;;;;;;;12.73;6.83;;;;;;;3.67;74.09;98848.63;4934126;59;1134362;-89
2021/01/23 05:33:46;;;;;;;15.93;7.33;;;;;;;3.69;74.79;98849.34;4856684;59;1134605;-90
2021/01/23 05:38:52;;;;;;;14.93;7.37;;;;;;;3.60;74.35;98829.63;4937267;58;1134239;-90
2021/01/23 05:43:57;;;;;;;19.37;6.90;;;;;;;3.57;74.85;98824.15;4915868;58;1134709;-90
2021/01/23 05:49:03;;;;;;;15.30;6.80;;;;;;;3.62;74.87;98815.49;4859447;60;1134184;-90
2021/01/23 05:54:08;;;;;;;12.20;4.93;;;;;;;3.62;74.69;98812.87;4942322;58;1134650;-90
2021/01/23 05:59:14;;;;;;;40.30;25.60;;;;;;;3.62;74.89;98810.73;4938058;58;1134556;-90
2021/01/23 06:04:20;;;;;;;21.67;11.87;;;;;;;3.67;75.17;98838.64;4955107;58;1136218;-90
2021/01/23 06:09:41;;;;;;;16.97;10.60;;;;;;;3.71;74.65;98834.38;4944680;58;1136779;-90
2021/01/23 06:14:46;;;;;;;22.50;9.85;;;;;;;3.70;74.64;98821.42;4941688;57;1136387;-91
2021/01/23 06:19:52;;;;;;;15.50;7.23;;;;;;;3.65;74.92;98810.03;4950330;58;1134203;-91
2021/01/23 06:24:58;;;;;;;9.70;5.87;;;;;;;3.61;75.28;98811.21;4983428;58;1134532;-91
2021/01/23 06:30:07;;;;;;;17.83;8.40;;;;;;;3.57;75.52;98798.48;4917395;58;1132078;-92
2021/01/23 06:35:15;;;;;;;13.70;6.70;;;;;;;3.56;75.65;98792.89;4992836;57;1134225;-91
2021/01/23 06:40:28;;;;;;;17.73;8.40;;;;;;;3.55;75.94;98778.99;5019768;57;1134276;-92
2021/01/23 06:45:37;;;;;;;10.20;6.37;;;;;;;3.53;75.95;98773.05;5000308;57;1134188;-92
2021/01/23 06:50:44;;;;;;;12.82;5.70;;;;;;;3.45;76.48;98762.36;5021113;57;1134443;-92
2021/01/23 06:55:54;;;;;;;15.27;7.53;;;;;;;3.44;76.99;98765.45;5001402;57;1134256;-92
2021/01/23 07:01:02;;;;;;;15.00;6.67;;;;;;;3.42;77.17;98742.99;5000348;57;1134085;-92
2021/01/23 07:06:09;;;;;;;19.83;8.53;;;;;;;3.36;78.22;98735.13;5020834;57;1134253;-91
2021/01/23 07:11:26;;;;;;;15.73;9.50;;;;;;;3.40;77.50;98722.67;5001216;57;1134550;-91
2021/01/23 07:16:30;;;;;;;26.90;15.80;;;;;;;3.37;77.64;98709.84;5080278;57;1130145;-93
2021/01/23 07:21:42;;;;;;;12.87;7.80;;;;;;;3.43;77.82;98700.23;5099654;58;21341;-92
2021/01/23 07:26:48;;;;;;;11.60;5.97;;;;;;;3.45;78.04;98682.19;5098622;58;21289;-88
2021/01/23 07:31:56;;;;;;;13.73;6.40;;;;;;;3.49;78.27;98674.94;5037923;58;1130112;-90
2021/01/23 07:37:02;;;;;;;20.70;7.73;;;;;;;3.48;78.53;98658.91;4993313;57;1134169;-92
2021/01/23 07:42:08;;;;;;;18.53;8.20;;;;;;;3.42;78.72;98644.52;5037466;57;1134222;-93
2021/01/23 07:47:15;;;;;;;12.00;6.13;;;;;;;3.41;78.91;98630.27;4997854;57;1134361;-93
2021/01/23 07:52:26;;;;;;;21.33;8.93;;;;;;;3.43;78.76;98621.84;5019035;57;1134109;-94
2021/01/23 07:57:31;;;;;;;26.27;14.30;;;;;;;3.43;79.04;98599.16;5016599;57;1134082;-93
2021/01/23 08:02:55;;;;;;;19.87;9.23;;;;;;;3.45;79.12;98595.95;5096341;58;21099;-92
2021/01/23 08:08:04;;;;;;;21.33;10.97;;;;;;;3.49;79.20;98586.92;5088049;58;21259;-93
2021/01/23 08:13:09;;;;;;;9.60;5.20;;;;;;;3.51;79.34;98584.19;5098567;58;21484;-92
2021/01/23 08:18:21;;;;;;;21.33;9.63;;;;;;;3.57;79.47;98572.39;5096626;58;21184;-93
2021/01/23 08:23:34;;;;;;;16.93;9.90;;;;;;;3.55;79.25;98554.22;5099105;58;21507;-94
2021/01/23 08:28:47;;;;;;;23.38;11.45;;;;;;;3.53;79.68;98536.52;5098241;58;21175;-93
2021/01/23 08:33:56;;;;;;;27.40;13.32;;;;;;;3.50;79.59;98530.26;5096874;58;21158;-93
2021/01/23 08:39:10;;;;;;;26.80;15.13;;;;;;;3.56;80.30;98531.05;5041102;58;21157;-93
2021/01/23 08:44:16;;;;;;;23.37;12.13;;;;;;;3.59;80.10;98515.61;5096412;58;21158;-92
2021/01/23 08:49:21;;;;;;;28.37;14.97;;;;;;;3.60;80.13;98506.81;5097702;57;21194;-92
2021/01/23 08:54:29;;;;;;;34.13;17.37;;;;;;;3.60;80.17;98497.66;5088753;58;21161;-92
2021/01/23 08:59:34;;;;;;;19.70;10.50;;;;;;;3.57;81.07;98493.98;4939116;58;1132097;-91
2021/01/23 09:04:40;;;;;;;38.90;18.40;;;;;;;3.60;80.75;98490.66;4963416;58;1138260;-92
2021/01/23 09:09:48;;;;;;;36.45;19.23;;;;;;;3.62;80.84;98483.52;4865161;58;1136574;-92
2021/01/23 09:14:53;;;;;;;36.00;17.00;;;;;;;3.67;80.93;98476.11;4919169;59;1136263;-91
2021/01/23 09:19:59;;;;;;;31.50;17.93;;;;;;;3.74;80.76;98466.83;5009685;58;1138489;-91
2021/01/23 09:25:06;;;;;;;78.53;34.47;;;;;;;3.77;80.78;98457.43;4945209;58;1136556;-90
2021/01/23 09:30:14;;;;;;;38.63;20.40;;;;;;;3.76;82.51;98458.38;4923836;58;1136736;-90
2021/01/23 09:35:20;;;;;;;36.10;20.07;;;;;;;3.83;81.33;98452.15;4870784;59;1136262;-90
2021/01/23 09:40:26;;;;;;;59.27;29.13;;;;;;;3.85;81.32;98447.15;4979997;57;1138216;-91
2021/01/23 09:45:35;;;;;;;42.88;21.82;;;;;;;3.96;81.19;98444.14;4863048;58;1138827;-91
2021/01/23 09:50:42;;;;;;;42.63;23.23;;;;;;;3.89;81.10;98418.48;5016120;58;21560;-92
2021/01/23 09:55:48;;;;;;;39.17;22.87;;;;;;;4.02;81.33;98419.59;4983589;59;21174;-92
2021/01/23 10:00:54;;;;;;;39.03;22.37;;;;;;;4.06;81.30;98413.63;4963335;59;21134;-92
2021/01/23 10:06:00;;;;;;;36.40;20.63;;;;;;;4.10;81.18;98398.86;4991217;58;1134243;-92
2021/01/23 10:11:05;;;;;;;40.07;22.07;;;;;;;4.11;81.89;98386.13;4931223;58;1136513;-88
2021/01/23 10:16:11;;;;;;;40.33;22.43;;;;;;;4.10;81.41;98377.11;4977719;58;1136252;-87
2021/01/23 10:21:16;;;;;;;38.53;22.23;;;;;;;4.18;81.61;98373.34;4960447;58;1138781;-88
2021/01/23 10:26:22;;;;;;;63.28;28.17;;;;;;;4.20;81.71;98364.89;4974657;58;1136489;-88
2021/01/23 10:31:28;;;;;;;41.37;19.77;;;;;;;4.23;81.61;98368.55;4964800;57;1136671;-88
2021/01/23 10:36:33;;;;;;;41.37;22.07;;;;;;;4.28;81.83;98354.58;4972156;57;1138302;-88
2021/01/23 10:41:39;;;;;;;46.80;25.43;;;;;;;4.24;82.05;98357.96;4966532;58;1136321;-87
2021/01/23 10:46:45;;;;;;;40.47;24.53;;;;;;;4.27;82.05;98347.72;4977281;58;1140193;-89
2021/01/23 10:51:51;;;;;;;40.50;24.10;;;;;;;4.35;82.07;98328.23;5041507;58;1138398;-89
2021/01/23 10:56:57;;;;;;;40.10;22.57;;;;;;;4.46;81.96;98320.27;5035958;57;1138583;-90
2021/01/23 11:02:02;;;;;;;45.83;26.80;;;;;;;4.51;82.11;98305.00;5023126;57;1138403;-89
2021/01/23 11:07:08;;;;;;;48.20;25.33;;;;;;;4.55;82.42;98293.78;4994877;57;1136312;-88
2021/01/23 11:12:13;;;;;;;51.83;30.30;;;;;;;4.61;82.09;98295.84;5021874;57;1138419;-89
2021/01/23 11:17:19;;;;;;;73.57;36.50;;;;;;;4.69;82.08;98281.61;5059939;57;1138491;-89
2021/01/23 11:22:28;;;;;;;49.70;26.03;;;;;;;4.74;82.04;98266.29;5004121;57;1138843;-89
2021/01/23 11:27:31;;;;;;;48.20;25.33;;;;;;;4.73;82.06;98269.08;5091583;57;1132179;-89
2021/01/23 11:32:38;;;;;;;46.47;24.57;;;;;;;4.72;82.22;98249.92;5007522;57;1136703;-88
2021/01/23 11:37:45;;;;;;;52.40;27.30;;;;;;;4.75;82.08;98237.84;5030932;57;1138312;-89
2021/01/23 11:42:55;;;;;;;71.95;34.78;;;;;;;4.77;82.18;98228.53;5023135;57;1138382;-87
2021/01/23 11:48:03;;;;;;;89.50;48.98;;;;;;;4.85;82.18;98215.11;4699651;59;1138732;-87
2021/01/23 11:53:08;;;;;;;189.53;117.80;;;;;;;4.93;82.35;98206.54;4539580;62;1138493;-88
2021/01/23 11:58:14;;;;;;;53.67;27.47;;;;;;;4.96;82.73;98203.65;4537376;62;1140487;-87
2021/01/23 12:03:20;;;;;;;50.77;25.60;;;;;;;4.97;82.35;98190.06;4538684;63;1138399;-87
2021/01/23 12:08:25;;;;;;;60.07;32.27;;;;;;;5.02;82.44;98182.14;4536920;63;1138940;-87
2021/01/23 12:13:31;;;;;;;82.17;45.07;;;;;;;5.10;82.33;98184.04;4692000;60;1138472;-87
2021/01/23 12:18:38;;;;;;;127.72;57.45;;;;;;;5.16;82.65;98170.38;4768963;60;1138684;-87
2021/01/23 12:23:44;;;;;;;341.50;162.73;;;;;;;5.15;82.47;98161.70;4784093;59;1138353;-86
2021/01/23 12:28:49;;;;;;;323.27;133.13;;;;;;;5.17;82.50;98166.31;4861142;58;1140716;-86
2021/01/23 12:33:55;;;;;;;188.37;77.30;;;;;;;5.20;82.49;98148.97;4877933;58;1142630;-85
2021/01/23 12:39:01;;;;;;;158.90;65.63;;;;;;;5.21;82.13;98157.17;4914824;58;1140419;-85
2021/01/23 12:44:07;;;;;;;172.70;76.90;;;;;;;5.26;82.45;98143.66;4754132;60;1140620;-85
2021/01/23 12:49:13;;;;;;;235.20;124.07;;;;;;;5.26;82.45;98143.66;4845401;58;1140410;-85
2021/01/23 12:54:18;;;;;;;145.40;72.53;;;;;;;5.22;82.28;98139.17;4913754;59;1140518;-85
2021/01/23 12:59:24;;;;;;;102.73;54.30;;;;;;;5.20;82.18;98131.11;4893027;58;1140537;-84
2021/01/23 13:17:00;;;;;;;63.47;32.30;;;;;;;5.03;82.34;98133.20;4432415;64;1138936;-85
2021/01/23 13:22:05;;;;;;;57.70;29.03;;;;;;;4.97;82.56;98129.83;4551608;62;1138511;-86
2021/01/23 13:27:11;;;;;;;70.47;29.93;;;;;;;4.83;83.32;98142.41;4511017;63;1138473;-87
2021/01/23 13:32:16;;;;;;;70.60;37.00;;;;;;;4.71;82.83;98139.61;4549548;63;1138599;-86
2021/01/23 13:37:22;;;;;;;70.73;37.30;;;;;;;4.71;83.02;98149.25;4556799;62;1138698;-86
2021/01/23 13:42:28;;;;;;;94.43;45.57;;;;;;;4.71;83.07;98168.41;4525483;63;1138848;-86
2021/01/23 13:47:34;;;;;;;120.57;56.80;;;;;;;4.74;83.22;98162.86;4583361;60;1138496;-86
2021/01/23 13:52:40;;;;;;;99.97;49.67;;;;;;;4.75;83.28;98164.52;4686951;60;1138933;-85
2021/01/23 13:57:45;;;;;;;160.25;81.45;;;;;;;4.83;83.19;98159.42;4825470;60;1138697;-85
2021/01/23 14:02:52;;;;;;;90.13;47.17;;;;;;;4.93;83.38;98164.63;4857592;60;1140821;-86
2021/01/23 14:07:58;;;;;;;135.23;63.50;;;;;;;5.02;83.51;98161.19;4856973;60;1138915;-86
2021/01/23 14:13:04;;;;;;;68.10;35.90;;;;;;;5.05;83.62;98156.12;4899153;58;1138412;-87
2021/01/23 14:18:09;;;;;;;53.63;29.10;;;;;;;5.08;83.62;98173.70;4992676;58;1136223;-86
2021/01/23 14:23:15;;;;;;;43.60;24.07;;;;;;;5.07;85.54;98183.83;4990355;58;1138314;-86
2021/01/23 14:28:21;;;;;;;68.23;35.17;;;;;;;5.09;86.37;98175.83;4993534;58;1138402;-86
2021/01/23 14:33:28;;;;;;;47.43;24.70;;;;;;;5.11;86.41;98169.97;5004185;57;1138747;-86
2021/01/23 14:38:36;;;;;;;40.63;22.57;;;;;;;5.13;86.49;98153.15;4992974;57;1138294;-87
2021/01/23 14:43:41;;;;;;;65.03;30.57;;;;;;;5.16;86.22;98154.66;4974418;58;1138378;-88
2021/01/23 14:48:47;;;;;;;53.97;25.93;;;;;;;5.14;85.92;98170.52;5010453;58;1138771;-87
2021/01/23 14:53:52;;;;;;;56.40;28.17;;;;;;;5.03;86.51;98193.45;4980061;58;1138886;-86
2021/01/23 14:58:58;;;;;;;78.37;35.73;;;;;;;4.84;85.83;98216.08;4981424;58;1138478;-87
2021/01/23 15:04:06;;;;;;;42.63;20.63;;;;;;;4.64;85.49;98256.79;4979596;58;1136479;-87
2021/01/23 15:09:11;;;;;;;45.90;20.73;;;;;;;4.31;85.66;98273.68;4999733;58;1136264;-87
2021/01/23 15:14:17;;;;;;;46.33;20.30;;;;;;;3.99;85.48;98272.55;4976692;58;1136676;-86
2021/01/23 15:19:23;;;;;;;42.33;18.90;;;;;;;3.69;86.30;98279.94;4978228;57;1136341;-87
2021/01/23 15:24:29;;;;;;;45.37;21.33;;;;;;;3.47;85.92;98297.45;5019626;58;1136184;-87
2021/01/23 15:29:35;;;;;;;26.50;12.80;;;;;;;3.22;85.92;98300.43;4978956;58;1136435;-85
2021/01/23 15:34:40;;;;;;;17.10;7.83;;;;;;;3.01;85.73;98305.66;5059136;58;1134222;-85
2021/01/23 15:39:46;;;;;;;9.63;6.27;;;;;;;2.84;85.95;98319.26;4956369;58;1134354;-85
2021/01/23 15:44:52;;;;;;;11.30;7.47;;;;;;;2.74;86.09;98328.80;4916119;58;1137404;-85
2021/01/23 15:49:57;;;;;;;7.53;3.87;;;;;;;2.66;85.44;98332.48;4920762;59;1134112;-85
2021/01/23 15:55:04;;;;;;;8.93;3.93;;;;;;;2.56;85.65;98338.92;4817891;59;1132107;-87
2021/01/23 16:00:11;;;;;;;11.43;6.00;;;;;;;2.45;85.29;98355.88;4829895;59;1132421;-86
2021/01/23 16:05:20;;;;;;;75.80;26.07;;;;;;;2.40;85.55;98379.73;4829869;59;1134596;-85
2021/01/23 16:10:25;;;;;;;24.30;6.77;;;;;;;2.33;85.23;98385.06;4827096;59;1136578;-85
2021/01/23 16:15:31;;;;;;;7.00;2.83;;;;;;;2.22;85.25;98403.80;4827515;59;1134410;-85
2021/01/23 16:20:37;;;;;;;14.03;7.20;;;;;;;2.03;85.63;98423.46;4824877;59;1132352;-85
2021/01/23 16:25:43;;;;;;;6.97;3.90;;;;;;;1.88;85.80;98436.35;4820647;59;1134902;-85
2021/01/23 16:30:49;;;;;;;6.05;4.00;;;;;;;1.77;85.98;98446.77;4818467;59;1132173;-85
2021/01/23 16:35:56;;;;;;;6.37;4.60;;;;;;;1.71;86.07;98455.02;4819963;59;1132242;-85
2021/01/23 16:41:19;;;;;;;5.13;3.33;;;;;;;1.65;86.08;98462.84;4814856;59;1132280;-86
2021/01/23 16:46:26;;;;;;;2.33;2.08;;;;;;;1.59;86.34;98483.30;4835375;59;1132126;-86
2021/01/23 16:51:33;;;;;;;4.50;2.90;;;;;;;1.53;86.44;98491.58;4822918;59;1132642;-86
2021/01/23 16:56:39;;;;;;;6.00;2.63;;;;;;;1.56;86.04;98503.88;4802104;59;1132275;-86
2021/01/23 17:51:01;;;;;;;12.15;6.10;;;;;;;1.33;86.63;98564.62;4947272;57;1132496;-87
2021/01/23 17:56:03;;;;;;;8.83;4.03;;;;;;;1.36;86.36;98600.41;4964143;57;1134362;-87
2021/01/23 18:01:12;;;;;;;4.83;3.17;;;;;;;1.37;86.43;98607.28;4968256;57;1132765;-87
2021/01/23 18:06:18;;;;;;;6.97;2.50;;;;;;;1.41;86.05;98623.50;4962654;57;1132374;-87
2021/01/23 18:11:24;;;;;;;3.92;1.67;;;;;;;1.44;85.95;98621.98;4959908;57;1132134;-86
2021/01/23 18:16:30;;;;;;;2.90;1.90;;;;;;;1.41;86.44;98613.08;4994137;57;1132191;-87
2021/01/23 18:21:36;;;;;;;7.58;3.85;;;;;;;1.36;86.58;98617.34;5002434;56;1132502;-87
2021/01/23 18:26:42;;;;;;;340.40;132.90;;;;;;;1.35;86.42;98635.67;4981406;58;1132382;-89
2021/01/23 18:31:48;;;;;;;24.23;13.23;;;;;;;1.36;86.47;98642.08;4804172;59;1141048;-87
2021/01/23 18:36:54;;;;;;;10.98;6.75;;;;;;;1.39;86.46;98643.14;4861238;58;1136674;-87
2021/01/23 18:41:59;;;;;;;25.00;15.20;;;;;;;1.40;86.87;98662.20;4956958;57;1134197;-86
2021/01/23 18:47:07;;;;;;;36.53;22.50;;;;;;;1.38;86.95;98666.22;4982595;57;1136555;-87
2021/01/23 18:52:13;;;;;;;18.10;9.23;;;;;;;1.37;87.15;98672.86;4969050;57;1136685;-87
2021/01/23 18:57:18;;;;;;;15.20;7.33;;;;;;;1.38;87.20;98658.87;5002495;57;1134932;-87
2021/01/23 19:02:24;;;;;;;15.23;6.83;;;;;;;1.40;86.96;98656.52;4977206;57;1134967;-86
2021/01/23 19:07:31;;;;;;;11.37;3.23;;;;;;;1.38;86.95;98638.87;4962829;57;1134356;-87
2021/01/23 19:19:01;;;;;;;29.70;8.83;;;;;;;1.37;87.41;98657.23;5050763;57;1134299;-86
2021/01/23 19:24:07;;;;;;;18.83;8.57;;;;;;;1.40;87.47;98690.86;5036475;57;1134585;-86
2021/01/23 19:29:13;;;;;;;14.33;9.07;;;;;;;1.42;87.14;98685.08;5022756;57;1134251;-85
2021/01/23 19:34:19;;;;;;;32.13;17.67;;;;;;;1.44;86.92;98701.44;5047173;57;1135081;-87
2021/01/23 19:39:25;;;;;;;110.03;35.08;;;;;;;1.49;86.88;98741.03;5005963;57;1136264;-87
2021/01/23 19:44:31;;;;;;;43.33;11.50;;;;;;;1.57;86.62;98769.14;5053143;56;1138473;-87
2021/01/23 19:49:37;;;;;;;22.73;7.23;;;;;;;1.62;86.46;98793.95;5014046;56;1136237;-87
2021/01/23 19:54:43;;;;;;;14.30;6.43;;;;;;;1.66;86.33;98818.04;5022774;57;1134122;-87
2021/01/23 19:59:53;;;;;;;4.50;3.23;;;;;;;1.68;86.18;98828.70;4986264;57;1134260;-86
2021/01/23 20:05:02;;;;;;;;;;;;;;;1.68;86.11;98833.91;4994932;57;1132315;-86
2021/01/23 20:10:08;;;;;;;5.80;4.33;;;;;;;1.67;86.01;98836.17;4999672;56;969322;-86
2021/01/23 20:15:15;;;;;;;3.80;2.87;;;;;;;1.64;86.07;98832.94;4968608;57;1130076;-86
2021/01/23 20:20:21;;;;;;;12.40;5.10;;;;;;;1.58;86.34;98822.45;4982598;57;1132131;-86
2021/01/23 20:25:27;;;;;;;7.15;3.98;;;;;;;1.54;86.13;98820.98;4989311;56;1134227;-86
2021/01/23 20:30:33;;;;;;;2.07;1.93;;;;;;;1.57;86.04;98840.33;4970581;57;1132114;-86
2021/01/23 20:35:39;;;;;;;3.93;2.87;;;;;;;1.59;85.97;98841.06;4975476;56;1131918;-86
2021/01/23 20:40:45;;;;;;;12.50;5.70;;;;;;;1.63;85.84;98834.71;4962708;57;1132134;-86
2021/01/23 20:45:50;;;;;;;4.43;2.27;;;;;;;1.61;85.70;98835.75;4976398;57;1134186;-86
2021/01/23 20:50:56;;;;;;;5.53;2.47;;;;;;;1.59;86.08;98837.63;4986047;57;1132548;-86
2021/01/23 20:56:06;;;;;;;3.17;1.47;;;;;;;1.60;85.93;98817.98;5000924;57;1132297;-86
2021/01/23 21:01:11;;;;;;;4.03;3.30;;;;;;;1.59;85.74;98807.66;5069021;56;1130141;-86
2021/01/23 21:06:17;;;;;;;2.80;1.70;;;;;;;1.54;85.67;98813.64;4960583;57;1132402;-86
2021/01/23 21:11:22;;;;;;;2.57;2.17;;;;;;;1.51;85.90;98813.88;4992181;57;1132224;-87
2021/01/23 21:16:29;;;;;;;5.90;2.30;;;;;;;1.48;85.87;98810.16;5012666;57;1132268;-87
2021/01/23 21:21:35;;;;;;;5.42;2.90;;;;;;;1.46;86.00;98811.56;4988922;57;1131919;-86
2021/01/23 21:26:41;;;;;;;5.80;2.43;;;;;;;1.50;85.88;98822.16;4974312;57;1132086;-87
2021/01/23 21:31:46;;;;;;;9.00;3.63;;;;;;;1.53;85.76;98821.92;5041657;57;1129962;-87
2021/01/23 21:36:52;;;;;;;13.90;5.33;;;;;;;1.57;85.78;98823.39;4981334;57;1132015;-87
2021/01/23 21:41:58;;;;;;;5.43;2.93;;;;;;;1.60;85.60;98827.56;4953663;57;1134170;-87
2021/01/23 21:47:03;;;;;;;3.10;2.53;;;;;;;1.64;85.53;98819.91;5052212;57;1132133;-86
2021/01/23 21:52:09;;;;;;;4.73;2.73;;;;;;;1.63;85.46;98837.78;4996314;57;1132352;-86
2021/01/23 21:57:15;;;;;;;2.20;1.87;;;;;;;1.66;85.47;98848.00;5007380;57;1132561;-87
2021/01/23 22:02:21;;;;;;;2.97;2.40;;;;;;;1.67;85.45;98842.69;4980049;57;1132588;-86
2021/01/23 22:07:27;;;;;;;3.70;2.57;;;;;;;1.70;85.37;98840.32;5000596;57;1132190;-86
2021/01/23 22:12:33;;;;;;;12.20;3.80;;;;;;;1.73;85.23;98851.38;4817551;59;1132495;-86
2021/01/23 22:17:39;;;;;;;261.80;82.87;;;;;;;1.78;85.32;98861.97;5016464;57;1134566;-87
2021/01/23 22:22:44;;;;;;;18.80;8.40;;;;;;;1.79;85.07;98849.30;4829867;58;1138604;-87
2021/01/23 22:27:51;;;;;;;6.47;3.57;;;;;;;1.84;85.05;98843.28;4995586;57;1134181;-87
2021/01/23 22:32:57;;;;;;;23.67;7.30;;;;;;;1.89;85.01;98849.03;4990219;57;1132221;-87
2021/01/23 22:38:02;;;;;;;15.23;5.37;;;;;;;1.89;84.93;98842.04;5002458;57;1134600;-87
2021/01/23 22:43:08;;;;;;;4.43;3.57;;;;;;;1.94;84.84;98841.27;5013980;56;1134161;-87
2021/01/23 22:48:14;;;;;;;6.23;2.93;;;;;;;1.96;84.65;98843.77;4980499;57;1132240;-86
2021/01/23 22:53:20;;;;;;;5.20;3.40;;;;;;;1.82;84.65;98817.82;4977257;57;1132122;-87
2021/01/23 22:58:26;;;;;;;11.43;4.90;;;;;;;1.89;84.68;98839.91;4977752;57;1132078;-87
2021/01/23 23:03:32;;;;;;;91.33;26.97;;;;;;;1.89;84.60;98842.04;5079418;57;21276;-87
2021/01/23 23:08:39;;;;;;;17.37;5.47;;;;;;;1.90;84.60;98857.22;5037086;57;1132075;-87
2021/01/23 23:13:44;;;;;;;4.33;2.00;;;;;;;1.86;84.73;98853.14;4969446;57;1134376;-86
2021/01/23 23:18:50;;;;;;;5.87;3.47;;;;;;;1.82;84.64;98847.80;4974561;57;1132127;-87
2021/01/23 23:23:58;;;;;;;4.63;2.83;;;;;;;1.81;84.60;98851.34;4983232;56;1132307;-87
2021/01/23 23:29:04;;;;;;;7.40;4.28;;;;;;;1.85;84.75;98863.20;4990191;57;1132083;-87
2021/01/23 23:34:10;;;;;;;5.50;3.73;;;;;;;1.86;84.71;98851.84;4864355;59;1132131;-87
2021/01/23 23:39:16;;;;;;;4.40;3.03;;;;;;;1.90;84.58;98853.30;4895606;58;1132017;-87
2021/01/23 23:44:21;;;;;;;4.45;3.40;;;;;;;1.92;84.53;98848.35;5018483;57;1132303;-87
2021/01/23 23:49:27;;;;;;;3.13;2.83;;;;;;;1.92;84.51;98841.84;4817486;59;1132143;-87
2021/01/23 23:54:33;;;;;;;3.60;2.20;;;;;;;1.94;84.40;98841.27;4899458;58;1132934;-87
2021/01/23 23:59:38;;;;;;;5.90;2.90;;;;;;;1.98;84.25;98847.94;4919003;58;1132363;-87
